Time;durP1;ratioP1;P1;durP2;ratioP2;P2;SDS_P1;SDS_P2;PMS_P1;PMS_P2;Temp;Humidity;BMP_temperature;BMP_pressure;BME280_temperature;BME280_humidity;BME280_pressure;Samples;Min_cycle;Max_cycle;Signal;HPM_P1;HPM_P2
2023/12/20 00:01:31;;;;;;;9.10;5.20;;;;;;;;;;103640;1292;544965;-69
2023/12/20 00:05:09;;;;;;;9.60;4.90;;;;;;;;;;103716;1289;544991;-67
2023/12/20 00:08:46;;;;;;;8.70;4.90;;;;;;;;;;103706;1292;546320;-68
2023/12/20 00:12:24;;;;;;;9.90;5.20;;;;;;;;;;103863;1289;545208;-68
2023/12/20 00:16:01;;;;;;;9.20;4.90;;;;;;;;;;103877;1288;544971;-66
2023/12/20 00:19:39;;;;;;;8.60;5.10;;;;;;;;;;103700;1301;544926;-69
2023/12/20 00:23:16;;;;;;;8.90;5.70;;;;;;;;;;103597;1290;545620;-67
2023/12/20 00:26:53;;;;;;;10.30;5.70;;;;;;;;;;103818;1288;544973;-69
2023/12/20 00:30:30;;;;;;;13.00;7.20;;;;;;;;;;103975;1289;544964;-67
2023/12/20 00:34:09;;;;;;;10.30;6.20;;;;;;;;;;103529;1291;546324;-67
2023/12/20 00:37:46;;;;;;;13.10;6.50;;;;;;;;;;103636;1292;544775;-67
2023/12/20 00:41:23;;;;;;;16.80;10.80;;;;;;;;;;103780;1289;545931;-70
2023/12/20 00:45:02;;;;;;;16.10;11.40;;;;;;;;;;103691;1291;545055;-67
2023/12/20 00:48:38;;;;;;;13.50;9.40;;;;;;;;;;103713;1288;544777;-69
2023/12/20 00:52:17;;;;;;;12.40;7.70;;;;;;;;;;103837;1289;544718;-67
2023/12/20 00:55:53;;;;;;;9.60;5.80;;;;;;;;;;103948;1289;544909;-67
2023/12/20 00:59:31;;;;;;;10.60;5.90;;;;;;;;;;103661;1298;544975;-67
2023/12/20 01:03:08;;;;;;;9.60;5.50;;;;;;;;;;103829;1289;545506;-67
2023/12/20 01:06:45;;;;;;;10.70;5.10;;;;;;;;;;103546;1292;544769;-68
2023/12/20 01:10:23;;;;;;;8.70;4.70;;;;;;;;;;103785;1302;545025;-69
2023/12/20 01:14:01;;;;;;;9.70;5.30;;;;;;;;;;103588;1289;544798;-68
2023/12/20 01:17:38;;;;;;;11.10;6.00;;;;;;;;;;103573;1291;544952;-69
2023/12/20 01:21:15;;;;;;;10.30;5.90;;;;;;;;;;103678;1295;545450;-68
2023/12/20 01:24:53;;;;;;;10.40;7.50;;;;;;;;;;103577;1291;545786;-67
2023/12/20 01:28:31;;;;;;;8.80;4.30;;;;;;;;;;103991;1286;545883;-69
2023/12/20 01:32:07;;;;;;;6.50;2.90;;;;;;;;;;103697;1290;544720;-66
2023/12/20 01:35:45;;;;;;;3.10;1.40;;;;;;;;;;103883;1288;544868;-66
2023/12/20 01:39:23;;;;;;;2.40;1.10;;;;;;;;;;103688;1289;544756;-69
2023/12/20 01:43:01;;;;;;;4.10;1.30;;;;;;;;;;103568;1293;545196;-67
2023/12/20 01:46:38;;;;;;;5.10;1.70;;;;;;;;;;104000;1286;545410;-67
2023/12/20 01:50:16;;;;;;;4.20;1.50;;;;;;;;;;103581;1301;545733;-69
2023/12/20 01:53:54;;;;;;;3.20;1.40;;;;;;;;;;104038;1289;544695;-72
2023/12/20 01:57:31;;;;;;;3.20;1.30;;;;;;;;;;103648;1292;545642;-68
2023/12/20 02:01:07;;;;;;;3.60;1.30;;;;;;;;;;104005;1289;545520;-67
2023/12/20 02:04:45;;;;;;;3.40;1.30;;;;;;;;;;103859;1288;545394;-67
2023/12/20 02:08:23;;;;;;;4.40;1.40;;;;;;;;;;103658;1292;544777;-67
2023/12/20 02:12:00;;;;;;;3.10;1.30;;;;;;;;;;103547;1291;545012;-67
2023/12/20 02:15:38;;;;;;;3.50;1.50;;;;;;;;;;103856;1288;545688;-70
2023/12/20 02:19:15;;;;;;;3.70;1.50;;;;;;;;;;103633;1292;545442;-68
2023/12/20 02:22:53;;;;;;;3.00;1.20;;;;;;;;;;103533;1293;544908;-68
2023/12/20 02:26:32;;;;;;;3.50;1.30;;;;;;;;;;103958;1286;545162;-68
2023/12/20 02:30:08;;;;;;;4.00;1.40;;;;;;;;;;103579;1291;544814;-67
2023/12/20 02:33:42;;;;;;;4.80;1.40;;;;;;;;;;103743;1296;544794;-77
2023/12/20 02:37:22;;;;;;;28.20;19.50;;;;;;;;;;103853;1292;545630;-67
2023/12/20 02:41:00;;;;;;;14.40;8.30;;;;;;;;;;103783;1289;544733;-71
2023/12/20 02:44:37;;;;;;;4.40;1.80;;;;;;;;;;103749;1292;544822;-67
2023/12/20 02:48:15;;;;;;;5.10;2.20;;;;;;;;;;104024;1286;545464;-67
2023/12/20 02:51:52;;;;;;;4.60;1.70;;;;;;;;;;103646;1288;545230;-67
2023/12/20 02:55:30;;;;;;;3.20;1.10;;;;;;;;;;103893;1289;544920;-68
2023/12/20 02:59:08;;;;;;;3.80;1.30;;;;;;;;;;103886;1289;544737;-67
2023/12/20 03:02:45;;;;;;;4.70;2.10;;;;;;;;;;103644;1287;544904;-70
2023/12/20 03:06:22;;;;;;;4.10;1.70;;;;;;;;;;103814;1289;544735;-67
2023/12/20 03:10:00;;;;;;;5.10;1.80;;;;;;;;;;103989;1286;545590;-75
2023/12/20 03:13:37;;;;;;;4.30;1.50;;;;;;;;;;103635;1291;544729;-67
2023/12/20 03:17:11;;;;;;;3.70;1.50;;;;;;;;;;103738;1304;544992;-75
2023/12/20 03:20:52;;;;;;;6.40;1.60;;;;;;;;;;103883;1292;545561;-75
2023/12/20 03:24:29;;;;;;;5.10;1.80;;;;;;;;;;103624;1295;544993;-67
2023/12/20 03:28:07;;;;;;;5.00;1.90;;;;;;;;;;104229;1286;546091;-68
2023/12/20 03:31:45;;;;;;;3.80;1.70;;;;;;;;;;103689;1289;545616;-67
2023/12/20 03:35:22;;;;;;;5.90;2.60;;;;;;;;;;103872;1288;544771;-67
2023/12/20 03:38:59;;;;;;;4.30;1.60;;;;;;;;;;104495;1282;544908;-66
2023/12/20 03:42:37;;;;;;;3.70;1.70;;;;;;;;;;103786;1290;544864;-68
2023/12/20 03:46:14;;;;;;;4.00;1.40;;;;;;;;;;103564;1292;545449;-67
2023/12/20 03:49:52;;;;;;;3.60;1.40;;;;;;;;;;103527;1295;544958;-68
2023/12/20 03:53:29;;;;;;;2.70;1.00;;;;;;;;;;103688;1295;544812;-73
2023/12/20 03:57:03;;;;;;;2.30;1.00;;;;;;;;;;103615;1290;545702;-73
2023/12/20 04:00:44;;;;;;;3.50;1.00;;;;;;;;;;103643;1290;545080;-66
2023/12/20 04:04:22;;;;;;;3.00;1.20;;;;;;;;;;103580;1291;544800;-68
2023/12/20 04:07:59;;;;;;;5.10;1.70;;;;;;;;;;103613;1292;544943;-72
2023/12/20 04:11:37;;;;;;;3.90;1.40;;;;;;;;;;103570;1292;544987;-67
2023/12/20 04:15:13;;;;;;;4.30;1.40;;;;;;;;;;103717;1290;545076;-67
2023/12/20 04:18:51;;;;;;;3.40;1.20;;;;;;;;;;103598;1295;544904;-67
2023/12/20 04:22:28;;;;;;;4.40;1.20;;;;;;;;;;103533;1294;545941;-70
2023/12/20 04:26:06;;;;;;;4.50;1.70;;;;;;;;;;103487;1291;545005;-68
2023/12/20 04:29:43;;;;;;;5.40;1.40;;;;;;;;;;103663;1292;545389;-70
2023/12/20 04:33:21;;;;;;;5.70;1.40;;;;;;;;;;103987;1289;545226;-68
2023/12/20 04:37:00;;;;;;;4.20;1.20;;;;;;;;;;103579;1289;545230;-77
2023/12/20 04:40:36;;;;;;;4.40;1.20;;;;;;;;;;103602;1292;544759;-68
2023/12/20 04:44:13;;;;;;;2.20;0.80;;;;;;;;;;104047;1289;544986;-68
2023/12/20 04:47:51;;;;;;;2.00;0.80;;;;;;;;;;103899;1289;545529;-73
2023/12/20 04:51:28;;;;;;;3.10;0.70;;;;;;;;;;103595;1292;545095;-72
2023/12/20 04:55:06;;;;;;;2.80;0.90;;;;;;;;;;103944;1288;544815;-69
2023/12/20 04:58:43;;;;;;;2.70;0.80;;;;;;;;;;103547;1295;544737;-69
2023/12/20 05:02:20;;;;;;;1.90;0.80;;;;;;;;;;103741;1289;545057;-70
2023/12/20 05:05:58;;;;;;;2.80;1.00;;;;;;;;;;103912;1288;544986;-74
2023/12/20 05:09:36;;;;;;;2.50;0.90;;;;;;;;;;103800;1292;544878;-72
2023/12/20 05:13:14;;;;;;;2.40;0.90;;;;;;;;;;103538;1293;545523;-68
2023/12/20 05:16:51;;;;;;;2.00;0.80;;;;;;;;;;103533;1292;544719;-68
2023/12/20 05:20:28;;;;;;;2.30;0.80;;;;;;;;;;103924;1290;544990;-68
2023/12/20 05:24:06;;;;;;;2.40;0.70;;;;;;;;;;103934;1287;545942;-71
2023/12/20 05:27:40;;;;;;;2.10;0.90;;;;;;;;;;104101;1293;545012;-70
2023/12/20 05:31:21;;;;;;;3.50;1.10;;;;;;;;;;103977;1286;544941;-67
2023/12/20 05:34:58;;;;;;;2.50;0.90;;;;;;;;;;104104;1286;545041;-70
2023/12/20 05:38:35;;;;;;;4.80;1.30;;;;;;;;;;103999;1286;545608;-70
2023/12/20 05:42:13;;;;;;;3.60;1.40;;;;;;;;;;104113;1290;545439;-69
2023/12/20 05:45:50;;;;;;;4.40;1.30;;;;;;;;;;104083;1289;545766;-68
2023/12/20 05:49:28;;;;;;;3.50;1.30;;;;;;;;;;103583;1289;544757;-68
2023/12/20 05:53:05;;;;;;;4.80;1.70;;;;;;;;;;103904;1289;544854;-68
2023/12/20 05:56:42;;;;;;;5.40;1.70;;;;;;;;;;103744;1289;544793;-67
2023/12/20 06:00:20;;;;;;;4.90;1.80;;;;;;;;;;103629;1289;544789;-70
2023/12/20 06:03:58;;;;;;;4.90;1.40;;;;;;;;;;103687;1289;545327;-68
2023/12/20 06:07:35;;;;;;;6.00;2.30;;;;;;;;;;103554;1292;545698;-68
2023/12/20 06:11:13;;;;;;;4.80;1.80;;;;;;;;;;103633;1295;544858;-73
2023/12/20 06:14:50;;;;;;;4.30;1.60;;;;;;;;;;103613;1289;545356;-68
2023/12/20 06:18:28;;;;;;;4.10;1.30;;;;;;;;;;103573;1289;545483;-74
2023/12/20 06:22:05;;;;;;;5.00;1.60;;;;;;;;;;104037;1286;545173;-68
2023/12/20 06:25:42;;;;;;;6.80;2.30;;;;;;;;;;103883;1288;545202;-67
2023/12/20 06:29:20;;;;;;;7.00;2.80;;;;;;;;;;104248;1289;544836;-67
2023/12/20 06:32:54;;;;;;;4.90;1.90;;;;;;;;;;103616;1289;545611;-73
2023/12/20 06:36:35;;;;;;;3.70;1.50;;;;;;;;;;103613;1292;544894;-74
2023/12/20 06:40:12;;;;;;;3.60;1.40;;;;;;;;;;103872;1289;544971;-67
2023/12/20 06:43:51;;;;;;;4.60;1.30;;;;;;;;;;104005;1292;545126;-68
2023/12/20 06:47:27;;;;;;;4.30;1.30;;;;;;;;;;103725;1289;544794;-69
2023/12/20 06:51:05;;;;;;;5.10;1.80;;;;;;;;;;103902;1288;544967;-70
2023/12/20 06:54:42;;;;;;;4.60;1.50;;;;;;;;;;103614;1289;544806;-72
2023/12/20 06:58:20;;;;;;;5.90;1.80;;;;;;;;;;103511;1291;545029;-67
2023/12/20 07:01:57;;;;;;;5.50;2.00;;;;;;;;;;103854;1292;544768;-67
2023/12/20 07:05:34;;;;;;;5.30;1.60;;;;;;;;;;104084;1286;544886;-67
2023/12/20 07:09:13;;;;;;;3.70;1.10;;;;;;;;;;103927;1289;545478;-69
2023/12/20 07:12:50;;;;;;;5.20;1.90;;;;;;;;;;103551;1295;545168;-69
2023/12/20 07:16:27;;;;;;;4.80;2.10;;;;;;;;;;104101;1286;545069;-69
2023/12/20 07:20:06;;;;;;;4.00;1.80;;;;;;;;;;103534;1291;545855;-67
2023/12/20 07:23:42;;;;;;;3.50;1.30;;;;;;;;;;103717;1292;545685;-70
2023/12/20 07:27:19;;;;;;;3.60;1.60;;;;;;;;;;103547;1292;544977;-68
2023/12/20 07:30:56;;;;;;;5.30;1.70;;;;;;;;;;103754;1295;545029;-67
2023/12/20 07:34:34;;;;;;;4.80;1.70;;;;;;;;;;103656;1289;544869;-67
2023/12/20 07:38:12;;;;;;;4.90;1.80;;;;;;;;;;104000;1286;545422;-71
2023/12/20 07:41:48;;;;;;;6.10;2.10;;;;;;;;;;103605;1291;544975;-72
2023/12/20 07:45:26;;;;;;;6.30;2.40;;;;;;;;;;103979;1286;545620;-69
2023/12/20 07:49:04;;;;;;;6.20;2.50;;;;;;;;;;104715;1279;544794;-69
2023/12/20 07:52:42;;;;;;;5.60;2.00;;;;;;;;;;103596;1294;545047;-70
2023/12/20 07:56:19;;;;;;;8.10;3.90;;;;;;;;;;103568;1292;544794;-70
2023/12/20 07:59:56;;;;;;;6.10;2.10;;;;;;;;;;103765;1289;544892;-69
2023/12/20 08:03:36;;;;;;;6.40;1.90;;;;;;;;;;103889;1288;545379;-67
2023/12/20 08:07:14;;;;;;;8.70;2.90;;;;;;;;;;103597;1292;544768;-71
2023/12/20 08:10:52;;;;;;;12.50;3.10;;;;;;;;;;103791;1288;545040;-67
2023/12/20 08:14:29;;;;;;;9.60;2.20;;;;;;;;;;103612;1291;545722;-67
2023/12/20 08:18:07;;;;;;;8.20;2.00;;;;;;;;;;103704;1289;544764;-68
2023/12/20 08:21:40;;;;;;;5.50;1.60;;;;;;;;;;104054;1286;545380;-72
2023/12/20 08:25:21;;;;;;;7.90;1.70;;;;;;;;;;103891;1289;544717;-67
2023/12/20 08:28:59;;;;;;;11.50;3.00;;;;;;;;;;103978;1292;545011;-73
2023/12/20 08:32:36;;;;;;;8.70;2.10;;;;;;;;;;104044;1286;546382;-73
2023/12/20 08:36:14;;;;;;;8.00;2.20;;;;;;;;;;103945;1292;545291;-68
2023/12/20 08:39:52;;;;;;;7.10;1.80;;;;;;;;;;104047;1286;545092;-67
2023/12/20 08:43:25;;;;;;;7.10;1.70;;;;;;;;;;104000;1289;545740;-73
2023/12/20 08:47:07;;;;;;;5.70;1.70;;;;;;;;;;103707;1295;544780;-67
2023/12/20 08:50:44;;;;;;;6.50;1.60;;;;;;;;;;103813;1287;545067;-67
2023/12/20 08:54:21;;;;;;;3.90;1.10;;;;;;;;;;103996;1292;544915;-69
2023/12/20 08:57:59;;;;;;;5.70;1.70;;;;;;;;;;103518;1292;545061;-67
2023/12/20 09:01:36;;;;;;;2.30;0.70;;;;;;;;;;103659;1292;545598;-67
2023/12/20 09:05:14;;;;;;;3.40;1.00;;;;;;;;;;103920;1289;544826;-67
2023/12/20 09:08:51;;;;;;;3.70;0.90;;;;;;;;;;103630;1294;545040;-68
2023/12/20 09:12:29;;;;;;;4.10;1.10;;;;;;;;;;103825;1289;545044;-70
2023/12/20 09:16:06;;;;;;;3.50;0.90;;;;;;;;;;103955;1288;545580;-71
2023/12/20 09:19:44;;;;;;;4.30;1.10;;;;;;;;;;103801;1288;545366;-69
2023/12/20 09:23:21;;;;;;;5.10;1.40;;;;;;;;;;103747;1295;544919;-67
2023/12/20 09:26:54;;;;;;;3.00;0.80;;;;;;;;;;103884;1292;545359;-76
2023/12/20 09:30:39;;;;;;;2.50;0.90;;;;;;;;;;103668;1290;545050;-70
2023/12/20 09:34:14;;;;;;;5.00;1.20;;;;;;;;;;103716;1288;544809;-67
2023/12/20 09:37:51;;;;;;;6.60;1.70;;;;;;;;;;103806;1290;545392;-68
2023/12/20 09:41:31;;;;;;;3.50;1.10;;;;;;;;;;103717;1288;545287;-67
2023/12/20 09:45:08;;;;;;;6.30;1.70;;;;;;;;;;103653;1294;544756;-67
2023/12/20 09:48:49;;;;;;;7.10;2.00;;;;;;;;;;103448;1295;544772;-68
2023/12/20 09:52:22;;;;;;;5.50;1.70;;;;;;;;;;103902;1289;544831;-74
2023/12/20 09:55:57;;;;;;;7.00;1.70;;;;;;;;;;103659;1303;544785;-69
2023/12/20 09:59:38;;;;;;;5.70;1.50;;;;;;;;;;103744;1289;545105;-69
2023/12/20 10:03:15;;;;;;;6.70;2.10;;;;;;;;;;104081;1289;544783;-69
2023/12/20 10:06:49;;;;;;;6.40;1.80;;;;;;;;;;103720;1289;544919;-70
2023/12/20 10:10:30;;;;;;;7.60;1.60;;;;;;;;;;103632;1289;544966;-69
2023/12/20 10:14:04;;;;;;;6.30;2.40;;;;;;;;;;103849;1288;544770;-68
2023/12/20 10:17:48;;;;;;;9.30;3.70;;;;;;;;;;103764;1289;544918;-71
2023/12/20 10:21:24;;;;;;;10.10;3.10;;;;;;;;;;104214;1283;544897;-67
2023/12/20 10:25:00;;;;;;;11.20;6.10;;;;;;;;;;104034;1291;544786;-69
2023/12/20 10:28:37;;;;;;;5.90;2.00;;;;;;;;;;103564;1292;545021;-71
2023/12/20 10:32:25;;;;;;;7.90;2.10;;;;;;;;;;103945;1289;544783;-69
2023/12/20 10:35:52;;;;;;;7.60;2.40;;;;;;;;;;103927;1286;545000;-67
2023/12/20 10:39:30;;;;;;;8.10;3.10;;;;;;;;;;104107;1289;545012;-67
2023/12/20 10:43:04;;;;;;;6.80;1.90;;;;;;;;;;103870;1290;545276;-69
2023/12/20 10:46:51;;;;;;;7.20;2.30;;;;;;;;;;104030;1300;544761;-70
2023/12/20 10:50:19;;;;;;;7.00;2.10;;;;;;;;;;104003;1300;545780;-70
2023/12/20 10:54:00;;;;;;;6.00;1.90;;;;;;;;;;103694;1289;545052;-67
2023/12/20 10:57:37;;;;;;;6.20;1.80;;;;;;;;;;103993;1286;544882;-67
2023/12/20 11:01:15;;;;;;;6.20;2.00;;;;;;;;;;103697;1292;544936;-68
2023/12/20 11:05:10;;;;;;;5.40;1.50;;;;;;;;;;104024;1286;544955;-69
2023/12/20 11:08:38;;;;;;;6.20;2.40;;;;;;;;;;103641;1291;545908;-68
2023/12/20 11:12:13;;;;;;;5.60;1.60;;;;;;;;;;103649;1289;544759;-69
2023/12/20 11:15:45;;;;;;;3.00;1.20;;;;;;;;;;103604;1290;545518;-70
2023/12/20 11:19:22;;;;;;;5.40;1.70;;;;;;;;;;103622;1293;544901;-68
2023/12/20 11:23:00;;;;;;;19.20;8.40;;;;;;;;;;103899;1289;544732;-68
2023/12/20 11:26:37;;;;;;;7.20;2.60;;;;;;;;;;103745;1289;544915;-69
2023/12/20 11:30:15;;;;;;;8.00;2.50;;;;;;;;;;103788;1290;545590;-70
2023/12/20 11:34:12;;;;;;;7.10;3.10;;;;;;;;;;103810;1289;544907;-68
2023/12/20 11:37:33;;;;;;;6.50;2.40;;;;;;;;;;103620;1289;545013;-67
2023/12/20 11:41:07;;;;;;;8.10;2.10;;;;;;;;;;104018;1288;544833;-67
2023/12/20 11:44:45;;;;;;;8.50;3.20;;;;;;;;;;103861;1289;545734;-66
2023/12/20 11:48:22;;;;;;;12.00;5.50;;;;;;;;;;103645;1289;545631;-67
2023/12/20 11:52:00;;;;;;;11.70;4.20;;;;;;;;;;103656;1295;544867;-66
2023/12/20 11:55:36;;;;;;;10.70;3.10;;;;;;;;;;103784;1290;544775;-67
2023/12/20 11:59:15;;;;;;;17.30;7.30;;;;;;;;;;103547;1292;544747;-69
2023/12/20 12:02:58;;;;;;;10.30;3.90;;;;;;;;;;103936;1290;545346;-68
2023/12/20 12:06:29;;;;;;;10.00;2.90;;;;;;;;;;103587;1292;545796;-69
2023/12/20 12:10:07;;;;;;;7.70;3.10;;;;;;;;;;103628;1289;544919;-69
2023/12/20 12:13:44;;;;;;;6.90;3.00;;;;;;;;;;103597;1302;545392;-68
2023/12/20 12:17:22;;;;;;;10.40;2.80;;;;;;;;;;103781;1289;544730;-69
2023/12/20 12:21:02;;;;;;;11.80;3.30;;;;;;;;;;103798;1289;544901;-71
2023/12/20 12:24:37;;;;;;;10.50;3.80;;;;;;;;;;103977;1286;544979;-69
2023/12/20 12:28:14;;;;;;;8.30;2.00;;;;;;;;;;103566;1298;545977;-68
2023/12/20 12:31:51;;;;;;;8.10;2.10;;;;;;;;;;103710;1289;545187;-68
2023/12/20 12:35:29;;;;;;;6.70;1.70;;;;;;;;;;103691;1289;544827;-68
2023/12/20 12:39:06;;;;;;;8.40;2.10;;;;;;;;;;103734;1288;544826;-68
2023/12/20 12:42:45;;;;;;;6.70;1.70;;;;;;;;;;103756;1288;544744;-67
2023/12/20 12:46:21;;;;;;;5.90;1.50;;;;;;;;;;103848;1289;545017;-67
2023/12/20 12:49:58;;;;;;;7.50;1.80;;;;;;;;;;103964;1289;545542;-70
2023/12/20 12:53:56;;;;;;;5.00;1.30;;;;;;;;;;103800;1292;545237;-73
2023/12/20 12:57:14;;;;;;;7.10;1.60;;;;;;;;;;103729;1291;545350;-67
2023/12/20 13:00:47;;;;;;;5.60;1.40;;;;;;;;;;103879;1288;544837;-67
2023/12/20 13:04:28;;;;;;;6.20;1.60;;;;;;;;;;103817;1289;544920;-72
2023/12/20 13:08:06;;;;;;;5.80;1.60;;;;;;;;;;103789;1289;544834;-67
2023/12/20 13:11:43;;;;;;;9.10;2.30;;;;;;;;;;103663;1290;545145;-69
2023/12/20 13:15:20;;;;;;;6.20;2.00;;;;;;;;;;103609;1296;544786;-68
2023/12/20 13:18:59;;;;;;;8.10;2.80;;;;;;;;;;103970;1289;545490;-68
2023/12/20 13:22:36;;;;;;;8.30;4.30;;;;;;;;;;103640;1291;545776;-69
2023/12/20 13:26:09;;;;;;;6.80;2.00;;;;;;;;;;103543;1292;544933;-72
2023/12/20 13:29:47;;;;;;;9.50;2.20;;;;;;;;;;103559;1292;545204;-68
2023/12/20 13:33:28;;;;;;;5.10;1.20;;;;;;;;;;103922;1288;546008;-68
2023/12/20 13:37:06;;;;;;;4.40;1.40;;;;;;;;;;104128;1289;545297;-72
2023/12/20 13:40:39;;;;;;;6.80;2.40;;;;;;;;;;103649;1291;545001;-69
2023/12/20 13:44:21;;;;;;;6.10;2.20;;;;;;;;;;103458;1292;545148;-68
2023/12/20 13:47:59;;;;;;;25.70;11.30;;;;;;;;;;103626;1295;544931;-68
2023/12/20 13:51:36;;;;;;;23.50;8.80;;;;;;;;;;103937;1286;545047;-70
2023/12/20 13:55:14;;;;;;;11.40;4.90;;;;;;;;;;104028;1287;544967;-68
2023/12/20 13:58:51;;;;;;;11.60;5.00;;;;;;;;;;103411;1292;545302;-67
2023/12/20 14:02:49;;;;;;;15.50;7.80;;;;;;;;;;103308;1292;545613;-72
2023/12/20 14:06:06;;;;;;;12.10;5.50;;;;;;;;;;103446;1291;546102;-70
2023/12/20 14:09:45;;;;;;;29.80;15.80;;;;;;;;;;103634;1295;545295;-67
2023/12/20 14:13:20;;;;;;;27.40;14.50;;;;;;;;;;103501;1292;544716;-67
2023/12/20 14:16:58;;;;;;;27.20;14.80;;;;;;;;;;103451;1293;544740;-69
2023/12/20 14:20:36;;;;;;;45.30;23.70;;;;;;;;;;103567;1294;546014;-68
2023/12/20 14:24:14;;;;;;;70.50;35.90;;;;;;;;;;103797;1289;544977;-67
2023/12/20 14:27:51;;;;;;;52.20;25.30;;;;;;;;;;103496;1291;546142;-67
2023/12/20 14:31:24;;;;;;;24.30;13.10;;;;;;;;;;104532;1286;544978;-67
2023/12/20 14:35:06;;;;;;;15.00;7.70;;;;;;;;;;103632;1291;545101;-67
2023/12/20 14:38:44;;;;;;;12.20;5.80;;;;;;;;;;103575;1292;544868;-68
2023/12/20 14:42:20;;;;;;;9.40;3.30;;;;;;;;;;103887;1288;544924;-71
2023/12/20 14:45:58;;;;;;;14.30;7.00;;;;;;;;;;103682;1289;544941;-69
2023/12/20 14:49:37;;;;;;;18.50;7.80;;;;;;;;;;103672;1301;545457;-69
2023/12/20 14:53:14;;;;;;;14.50;7.40;;;;;;;;;;103551;1292;544888;-70
2023/12/20 14:56:50;;;;;;;18.40;9.40;;;;;;;;;;103416;1292;546713;-68
2023/12/20 15:00:24;;;;;;;40.30;22.80;;;;;;;;;;103843;1292;545850;-67
2023/12/20 15:04:06;;;;;;;22.50;11.40;;;;;;;;;;103555;1289;545151;-69
2023/12/20 15:07:43;;;;;;;22.10;13.20;;;;;;;;;;103528;1291;544864;-69
2023/12/20 15:11:20;;;;;;;21.10;10.30;;;;;;;;;;103541;1292;545787;-69
2023/12/20 15:14:58;;;;;;;22.80;14.10;;;;;;;;;;103829;1289;545418;-69
2023/12/20 15:18:31;;;;;;;10.10;4.50;;;;;;;;;;104305;1283;545739;-67
2023/12/20 15:22:13;;;;;;;15.00;6.60;;;;;;;;;;103610;1296;545924;-69
2023/12/20 15:26:10;;;;;;;42.00;21.50;;;;;;;;;;103850;1291;545512;-75
2023/12/20 15:29:28;;;;;;;16.20;7.90;;;;;;;;;;103579;1292;544926;-70
2023/12/20 15:33:05;;;;;;;21.20;8.60;;;;;;;;;;103822;1292;544857;-69
2023/12/20 15:36:42;;;;;;;22.80;8.90;;;;;;;;;;103530;1292;545530;-69
2023/12/20 15:40:16;;;;;;;11.20;4.20;;;;;;;;;;103884;1296;544950;-69
2023/12/20 15:43:57;;;;;;;10.40;3.60;;;;;;;;;;103758;1292;545768;-72
2023/12/20 15:47:38;;;;;;;10.20;2.90;;;;;;;;;;103781;1292;545076;-71
2023/12/20 15:51:14;;;;;;;8.70;3.80;;;;;;;;;;104019;1286;545097;-69
2023/12/20 15:54:47;;;;;;;9.10;3.70;;;;;;;;;;104317;1285;545182;-69
2023/12/20 15:58:23;;;;;;;11.30;4.70;;;;;;;;;;103925;1286;545492;-67
2023/12/20 16:02:04;;;;;;;17.00;6.40;;;;;;;;;;103546;1305;545629;-69
2023/12/20 16:05:42;;;;;;;30.70;11.50;;;;;;;;;;103584;1292;544818;-67
2023/12/20 16:09:16;;;;;;;40.70;15.10;;;;;;;;;;103690;1289;544740;-66
2023/12/20 16:12:57;;;;;;;77.90;31.80;;;;;;;;;;103526;1295;545047;-68
2023/12/20 16:16:31;;;;;;;84.30;32.70;;;;;;;;;;103973;1286;545440;-73
2023/12/20 16:20:13;;;;;;;55.90;22.60;;;;;;;;;;103534;1292;545509;-69
2023/12/20 16:23:49;;;;;;;60.70;23.60;;;;;;;;;;103770;1292;545036;-71
2023/12/20 16:27:27;;;;;;;40.70;16.70;;;;;;;;;;103809;1287;545497;-68
2023/12/20 16:31:04;;;;;;;70.60;28.90;;;;;;;;;;103594;1291;544977;-68
2023/12/20 16:34:44;;;;;;;65.60;28.90;;;;;;;;;;103434;1293;544697;-67
2023/12/20 16:38:19;;;;;;;32.70;14.70;;;;;;;;;;103950;1289;544733;-70
2023/12/20 16:41:57;;;;;;;23.60;10.80;;;;;;;;;;103409;1293;545015;-70
2023/12/20 16:45:34;;;;;;;29.50;12.70;;;;;;;;;;104066;1288;545021;-69
2023/12/20 16:49:12;;;;;;;17.80;7.80;;;;;;;;;;104147;1289;544809;-69
2023/12/20 16:52:51;;;;;;;22.60;10.30;;;;;;;;;;104078;1291;545450;-70
2023/12/20 16:56:23;;;;;;;25.30;12.00;;;;;;;;;;104045;1286;544951;-70
2023/12/20 17:00:05;;;;;;;16.40;6.80;;;;;;;;;;104063;1289;544926;-67
2023/12/20 17:03:41;;;;;;;15.00;6.60;;;;;;;;;;104128;1288;544998;-68
2023/12/20 17:07:19;;;;;;;38.90;19.40;;;;;;;;;;103659;1292;544840;-68
2023/12/20 17:10:56;;;;;;;101.10;40.20;;;;;;;;;;103775;1288;544901;-69
2023/12/20 17:14:34;;;;;;;66.80;24.60;;;;;;;;;;103712;1302;545058;-71
2023/12/20 17:18:11;;;;;;;72.40;30.90;;;;;;;;;;103816;1289;545812;-71
2023/12/20 17:21:45;;;;;;;28.60;14.40;;;;;;;;;;103802;1289;545602;-70
2023/12/20 17:25:27;;;;;;;21.30;10.50;;;;;;;;;;103768;1289;544853;-71
2023/12/20 17:29:04;;;;;;;16.00;7.60;;;;;;;;;;103528;1292;544968;-69
2023/12/20 17:32:48;;;;;;;11.60;5.80;;;;;;;;;;103465;1291;545508;-70
2023/12/20 17:36:19;;;;;;;13.90;6.30;;;;;;;;;;104109;1285;545588;-69
2023/12/20 17:39:56;;;;;;;12.40;5.90;;;;;;;;;;104017;1289;544798;-67
2023/12/20 17:43:34;;;;;;;12.90;5.10;;;;;;;;;;103615;1295;544747;-70
2023/12/20 17:47:11;;;;;;;11.20;3.70;;;;;;;;;;104110;1288;544835;-71
2023/12/20 17:50:49;;;;;;;13.30;4.60;;;;;;;;;;104039;1287;545522;-68
2023/12/20 17:54:23;;;;;;;14.00;5.80;;;;;;;;;;103585;1292;545523;-71
2023/12/20 17:58:03;;;;;;;14.10;4.90;;;;;;;;;;103639;1292;544920;-68
2023/12/20 18:01:41;;;;;;;9.90;3.50;;;;;;;;;;103516;1295;545715;-67
2023/12/20 18:05:19;;;;;;;7.70;1.90;;;;;;;;;;103663;1288;546466;-67
2023/12/20 18:08:56;;;;;;;7.00;1.80;;;;;;;;;;103844;1289;545058;-66
2023/12/20 18:12:34;;;;;;;8.20;2.40;;;;;;;;;;103700;1290;545259;-70
2023/12/20 18:16:11;;;;;;;13.70;5.60;;;;;;;;;;103672;1289;545038;-73
2023/12/20 18:19:48;;;;;;;11.70;3.90;;;;;;;;;;103496;1292;545188;-68
2023/12/20 18:23:26;;;;;;;11.30;4.50;;;;;;;;;;103630;1289;545004;-70
2023/12/20 18:27:03;;;;;;;9.00;3.90;;;;;;;;;;103506;1294;545043;-69
2023/12/20 18:30:41;;;;;;;8.20;3.00;;;;;;;;;;103973;1287;544961;-67
2023/12/20 18:34:38;;;;;;;6.60;2.10;;;;;;;;;;103392;1292;548467;-69
2023/12/20 18:37:57;;;;;;;6.00;1.70;;;;;;;;;;104486;1285;545582;-72
2023/12/20 18:41:34;;;;;;;6.80;2.40;;;;;;;;;;103470;1292;545509;-67
2023/12/20 18:45:10;;;;;;;9.20;3.70;;;;;;;;;;104119;1285;545207;-67
2023/12/20 18:48:48;;;;;;;7.50;2.60;;;;;;;;;;103354;1292;544831;-69
2023/12/20 18:52:27;;;;;;;5.80;1.80;;;;;;;;;;103746;1289;544872;-70
2023/12/20 18:56:03;;;;;;;9.10;2.90;;;;;;;;;;103395;1291;544995;-68
2023/12/20 18:59:40;;;;;;;7.10;2.60;;;;;;;;;;103591;1299;545076;-67
2023/12/20 19:03:18;;;;;;;7.00;2.70;;;;;;;;;;104099;1286;544992;-69
2023/12/20 19:06:59;;;;;;;14.60;5.10;;;;;;;;;;103605;1288;545028;-67
2023/12/20 19:10:32;;;;;;;11.80;4.80;;;;;;;;;;103553;1289;544886;-68
2023/12/20 19:14:13;;;;;;;30.50;15.40;;;;;;;;;;103435;1292;545590;-68
2023/12/20 19:17:48;;;;;;;38.80;15.60;;;;;;;;;;103549;1295;545071;-67
2023/12/20 19:21:26;;;;;;;27.70;10.70;;;;;;;;;;103890;1286;544842;-70
2023/12/20 19:25:08;;;;;;;29.60;11.90;;;;;;;;;;103697;1291;546005;-68
2023/12/20 19:28:43;;;;;;;15.50;6.80;;;;;;;;;;103621;1290;545311;-68
2023/12/20 19:32:18;;;;;;;13.20;5.90;;;;;;;;;;103812;1289;544820;-67
2023/12/20 19:35:55;;;;;;;18.90;5.80;;;;;;;;;;104052;1286;545772;-70
2023/12/20 19:39:35;;;;;;;17.60;6.10;;;;;;;;;;104023;1286;545464;-68
2023/12/20 19:43:08;;;;;;;10.50;3.70;;;;;;;;;;103702;1289;545540;-67
2023/12/20 19:46:49;;;;;;;16.30;5.50;;;;;;;;;;103696;1288;545347;-67
2023/12/20 19:50:26;;;;;;;10.40;3.90;;;;;;;;;;103965;1291;545761;-68
2023/12/20 19:54:04;;;;;;;14.50;7.50;;;;;;;;;;103970;1286;544934;-70
2023/12/20 19:57:41;;;;;;;21.40;7.80;;;;;;;;;;103580;1292;545459;-70
2023/12/20 20:01:19;;;;;;;11.30;4.90;;;;;;;;;;103495;1295;545655;-75
2023/12/20 20:04:56;;;;;;;13.00;5.50;;;;;;;;;;103554;1292;545750;-69
2023/12/20 20:08:34;;;;;;;9.80;4.60;;;;;;;;;;103883;1289;544933;-68
2023/12/20 20:12:11;;;;;;;8.80;4.40;;;;;;;;;;103610;1293;545594;-67
2023/12/20 20:15:49;;;;;;;12.70;6.40;;;;;;;;;;103344;1305;546132;-67
2023/12/20 20:19:46;;;;;;;8.50;3.80;;;;;;;;;;103484;1292;545695;-69
2023/12/20 20:23:04;;;;;;;11.30;5.50;;;;;;;;;;103513;1291;546446;-69
2023/12/20 20:26:37;;;;;;;26.10;12.10;;;;;;;;;;103915;1291;545448;-67
2023/12/20 20:30:19;;;;;;;12.30;5.20;;;;;;;;;;103489;1292;544949;-68
2023/12/20 20:33:52;;;;;;;7.30;2.80;;;;;;;;;;103690;1289;544788;-72
2023/12/20 20:37:34;;;;;;;8.80;2.90;;;;;;;;;;103662;1290;545117;-67
2023/12/20 20:41:11;;;;;;;7.70;2.70;;;;;;;;;;103547;1292;544773;-69
2023/12/20 20:44:49;;;;;;;10.10;5.50;;;;;;;;;;103898;1288;546096;-69
2023/12/20 20:48:26;;;;;;;34.70;15.80;;;;;;;;;;103883;1289;545534;-72
2023/12/20 20:52:04;;;;;;;24.60;13.40;;;;;;;;;;103482;1289;545632;-68
2023/12/20 20:55:37;;;;;;;16.60;10.00;;;;;;;;;;103650;1292;545385;-76